Time;durP1;ratioP1;P1;durP2;ratioP2;P2;SDS_P1;SDS_P2;PMS_P1;PMS_P2;Temp;Humidity;BMP_temperature;BMP_pressure;BME280_temperature;BME280_humidity;BME280_pressure;Samples;Min_cycle;Max_cycle;Signal;HPM_P1;HPM_P2
2021/03/14 00:00:57;;;;;;;9.67;0.77;;;5.10;96.80;;;;;;5044330;28;20044;-81
2021/03/14 00:03:27;;;;;;;10.23;1.33;;;5.00;96.80;;;;;;5028593;28;20033;-82
2021/03/14 00:05:55;;;;;;;11.70;0.90;;;5.00;96.90;;;;;;5045985;28;20395;-81
2021/03/14 00:08:25;;;;;;;10.07;1.40;;;4.90;97.00;;;;;;5049793;28;20037;-81
2021/03/14 00:11:02;;;;;;;13.07;1.17;;;4.90;97.00;;;;;;5035795;28;20037;-81
2021/03/14 00:13:32;;;;;;;9.83;0.87;;;4.90;97.10;;;;;;5032871;28;20503;-82
2021/03/14 00:16:00;;;;;;;9.43;0.80;;;4.80;97.10;;;;;;5018064;28;20024;-81
2021/03/14 00:18:32;;;;;;;13.57;1.70;;;4.80;97.00;;;;;;5039112;28;20037;-81
2021/03/14 00:20:59;;;;;;;19.33;1.40;;;4.80;97.00;;;;;;5056749;28;20064;-80
2021/03/14 00:23:27;;;;;;;12.63;1.13;;;4.80;97.00;;;;;;5036545;28;20063;-80
2021/03/14 00:25:55;;;;;;;8.77;0.73;;;4.80;97.00;;;;;;5025056;28;20060;-81
2021/03/14 00:28:22;;;;;;;12.30;1.77;;;4.80;97.00;;;;;;5036137;28;20056;-81
2021/03/14 00:30:49;;;;;;;9.87;0.90;;;4.80;97.10;;;;;;5020213;28;20403;-80
2021/03/14 00:33:16;;;;;;;13.18;1.55;;;4.90;97.10;;;;;;5004798;28;20395;-80
2021/03/14 00:35:43;;;;;;;10.30;1.30;;;4.90;97.10;;;;;;5045542;28;20820;-80
2021/03/14 00:38:10;;;;;;;11.80;1.13;;;4.90;97.00;;;;;;5025674;28;20746;-80
2021/03/14 00:40:36;;;;;;;12.53;0.90;;;5.00;97.00;;;;;;5025295;28;20040;-80
2021/03/14 00:43:04;;;;;;;9.93;1.10;;;4.90;97.00;;;;;;5007793;28;20392;-80
2021/03/14 00:45:35;;;;;;;13.03;1.27;;;4.90;97.00;;;;;;5036832;28;20039;-80
2021/03/14 00:48:05;;;;;;;6.78;0.80;;;4.90;97.00;;;;;;5017758;28;20479;-80
2021/03/14 00:50:37;;;;;;;10.83;1.00;;;4.90;97.00;;;;;;5018118;28;20751;-80
2021/03/14 00:53:05;;;;;;;15.80;1.88;;;4.90;97.30;;;;;;5029460;28;20044;-81
2021/03/14 00:55:35;;;;;;;14.27;1.10;;;4.90;97.00;;;;;;5047990;28;20041;-80
2021/03/14 00:58:02;;;;;;;11.77;0.90;;;5.00;97.00;;;;;;5051584;28;20040;-81
2021/03/14 01:00:29;;;;;;;11.67;1.53;;;5.00;97.00;;;;;;5037659;28;20041;-81
2021/03/14 01:02:56;;;;;;;12.70;1.10;;;5.10;97.00;;;;;;4999000;28;20028;-81
2021/03/14 01:05:26;;;;;;;8.63;0.70;;;5.10;96.80;;;;;;5033795;28;20048;-81
2021/03/14 01:07:53;;;;;;;14.50;1.63;;;5.20;96.80;;;;;;5047485;28;20037;-81
2021/03/14 01:10:20;;;;;;;13.10;1.13;;;5.20;96.60;;;;;;5037120;28;20037;-81
2021/03/14 01:12:47;;;;;;;8.27;1.20;;;5.20;96.60;;;;;;5014375;28;20044;-82
2021/03/14 01:15:20;;;;;;;11.40;0.90;;;5.30;96.60;;;;;;5003357;28;20044;-81
2021/03/14 01:17:52;;;;;;;11.73;1.37;;;5.40;96.60;;;;;;5033803;28;20714;-81
2021/03/14 01:20:22;;;;;;;15.77;1.08;;;5.40;96.90;;;;;;5030393;28;20064;-82
2021/03/14 01:22:49;;;;;;;12.77;1.00;;;5.40;96.40;;;;;;5045680;28;20048;-81
2021/03/14 01:25:16;;;;;;;11.53;0.80;;;5.40;96.40;;;;;;5029435;28;20036;-81
2021/03/14 01:27:45;;;;;;;13.13;1.10;;;5.40;96.40;;;;;;5014317;28;20796;-82
2021/03/14 01:30:15;;;;;;;9.03;0.80;;;5.50;96.40;;;;;;5030998;28;20063;-81
2021/03/14 01:32:44;;;;;;;8.63;1.02;;;5.50;96.40;;;;;;5048271;28;20601;-82
2021/03/14 01:35:11;;;;;;;14.47;1.03;;;5.50;96.40;;;;;;5033184;28;20037;-81
2021/03/14 01:37:38;;;;;;;8.30;0.80;;;5.50;96.40;;;;;;5055469;28;20053;-81
2021/03/14 01:40:06;;;;;;;13.02;0.95;;;5.50;96.40;;;;;;5035404;28;20399;-81
2021/03/14 01:42:33;;;;;;;14.53;1.33;;;5.50;96.40;;;;;;5051079;28;20368;-81
2021/03/14 01:45:01;;;;;;;10.97;0.80;;;5.50;96.40;;;;;;5036800;28;20044;-81
2021/03/14 01:47:40;;;;;;;11.80;0.70;;;5.50;96.40;;;;;;5032737;28;20056;-82
2021/03/14 01:50:16;;;;;;;11.77;1.00;;;5.50;96.40;;;;;;5058808;28;20395;-81
2021/03/14 01:52:44;;;;;;;12.43;0.98;;;5.50;96.40;;;;;;5048763;28;20056;-81
2021/03/14 01:55:11;;;;;;;9.25;1.00;;;5.50;96.40;;;;;;5005258;28;20037;-81
2021/03/14 01:57:38;;;;;;;10.95;1.20;;;5.60;96.40;;;;;;5013320;28;20507;-81
2021/03/14 02:00:07;;;;;;;10.90;1.15;;;5.50;96.60;;;;;;5032480;28;20032;-81
2021/03/14 02:02:38;;;;;;;12.87;1.00;;;5.60;96.40;;;;;;5047363;28;20055;-81
2021/03/14 02:05:07;;;;;;;11.77;1.33;;;5.60;96.30;;;;;;5015711;28;20507;-81
2021/03/14 02:07:36;;;;;;;11.33;1.30;;;5.60;96.30;;;;;;5012540;28;20037;-81
2021/03/14 02:10:04;;;;;;;11.98;0.90;;;5.60;96.30;;;;;;5033866;28;20048;-81
2021/03/14 02:12:47;;;;;;;13.85;1.10;;;5.60;96.30;;;;;;5013470;28;20048;-81
2021/03/14 02:15:17;;;;;;;13.02;0.90;;;5.60;96.30;;;;;;5030047;28;20056;-81
2021/03/14 02:17:46;;;;;;;13.32;0.90;;;5.50;96.20;;;;;;5034051;28;20064;-81
2021/03/14 02:20:19;;;;;;;9.82;1.08;;;5.60;96.30;;;;;;5030425;28;20048;-81
2021/03/14 02:22:48;;;;;;;9.82;0.75;;;5.60;96.20;;;;;;5035445;28;20043;-81
2021/03/14 02:25:37;;;;;;;10.32;1.02;;;5.60;96.20;;;;;;5051828;28;20033;-81
2021/03/14 02:28:06;;;;;;;11.43;1.05;;;5.60;96.20;;;;;;5013005;28;20025;-81
2021/03/14 02:30:33;;;;;;;9.53;0.83;;;5.60;96.20;;;;;;5051475;28;20500;-81
2021/03/14 02:32:59;;;;;;;11.23;1.77;;;5.60;96.20;;;;;;5045040;28;20049;-81
2021/03/14 02:35:28;;;;;;;12.68;1.17;;;5.70;96.20;;;;;;5047878;28;20059;-81
2021/03/14 02:37:55;;;;;;;17.33;1.40;;;5.60;95.90;;;;;;5046445;28;20056;-81
2021/03/14 02:40:22;;;;;;;6.55;0.65;;;5.60;96.00;;;;;;5029897;28;20045;-81
2021/03/14 02:42:49;;;;;;;12.37;0.93;;;5.50;96.00;;;;;;5012713;28;20498;-80
2021/03/14 02:45:18;;;;;;;9.83;1.50;;;5.50;96.10;;;;;;5047321;28;20040;-80
2021/03/14 02:47:44;;;;;;;6.97;0.77;;;5.50;96.10;;;;;;5028824;28;20400;-80
2021/03/14 02:50:20;;;;;;;13.85;0.93;;;5.50;96.10;;;;;;5013402;28;20392;-80
2021/03/14 02:52:47;;;;;;;13.18;1.33;;;5.50;96.20;;;;;;5030011;28;20044;-80
2021/03/14 02:55:15;;;;;;;15.10;1.20;;;5.50;96.20;;;;;;5051308;28;20053;-81
2021/03/14 02:57:44;;;;;;;13.52;1.13;;;5.50;96.10;;;;;;5013789;28;20052;-81
2021/03/14 03:00:14;;;;;;;11.07;1.30;;;5.50;95.90;;;;;;5031810;28;20052;-80
2021/03/14 03:02:45;;;;;;;15.27;2.03;;;5.50;95.90;;;;;;5032514;28;20059;-80
2021/03/14 03:05:14;;;;;;;11.15;1.00;;;5.50;95.90;;;;;;5012254;28;20471;-80
2021/03/14 03:07:45;;;;;;;15.27;1.17;;;5.50;95.90;;;;;;5046494;28;20040;-80
2021/03/14 03:10:12;;;;;;;13.73;1.07;;;5.50;95.90;;;;;;5029557;28;20032;-81
2021/03/14 03:12:40;;;;;;;7.95;0.80;;;5.40;96.00;;;;;;5028993;28;21404;-81
2021/03/14 03:15:08;;;;;;;13.67;1.70;;;5.40;95.90;;;;;;5012244;28;20412;-80
2021/03/14 03:17:36;;;;;;;11.17;1.30;;;5.40;96.00;;;;;;4996225;28;20495;-80
2021/03/14 03:20:04;;;;;;;15.77;1.20;;;5.30;96.00;;;;;;5049136;28;20037;-80
2021/03/14 03:22:31;;;;;;;8.70;0.80;;;5.30;95.90;;;;;;5013737;28;20799;-80
2021/03/14 03:24:58;;;;;;;12.77;1.33;;;5.30;96.00;;;;;;5046102;28;20049;-80
2021/03/14 03:27:24;;;;;;;13.75;1.77;;;5.30;95.90;;;;;;5029312;28;20048;-80
2021/03/14 03:29:52;;;;;;;17.80;1.07;;;5.30;95.90;;;;;;5028081;28;20044;-80
2021/03/14 03:32:19;;;;;;;12.82;0.70;;;5.40;96.00;;;;;;5028758;28;20033;-80
2021/03/14 03:34:46;;;;;;;11.43;1.40;;;5.30;95.90;;;;;;5016057;28;20041;-80
2021/03/14 03:37:12;;;;;;;17.03;1.10;;;5.30;95.80;;;;;;5030020;28;20494;-80
2021/03/14 03:39:39;;;;;;;20.83;1.23;;;5.30;95.80;;;;;;5015562;28;20044;-80
2021/03/14 03:42:12;;;;;;;16.50;1.40;;;5.30;95.90;;;;;;5048502;28;20045;-80
2021/03/14 03:44:40;;;;;;;15.00;1.47;;;5.20;95.80;;;;;;5046986;28;20029;-80
2021/03/14 03:47:10;;;;;;;16.50;1.10;;;5.20;95.80;;;;;;5027311;28;20052;-80
2021/03/14 03:49:39;;;;;;;12.88;1.00;;;5.20;95.90;;;;;;5012630;28;20037;-80
2021/03/14 03:52:05;;;;;;;11.33;1.20;;;5.20;95.90;;;;;;5032094;28;20040;-80
2021/03/14 03:54:33;;;;;;;15.07;1.20;;;5.20;95.90;;;;;;5031772;28;20516;-80
2021/03/14 03:57:01;;;;;;;14.13;0.80;;;5.20;95.80;;;;;;5013568;28;20041;-80
2021/03/14 03:59:28;;;;;;;11.83;0.80;;;5.20;95.90;;;;;;5046595;28;20045;-80
2021/03/14 04:01:56;;;;;;;8.83;1.00;;;5.20;96.00;;;;;;5045720;28;20052;-82
2021/03/14 04:04:24;;;;;;;9.90;1.07;;;5.10;96.00;;;;;;5013858;28;20052;-81
2021/03/14 04:06:53;;;;;;;9.43;0.83;;;5.20;96.10;;;;;;5012662;28;20037;-81
2021/03/14 04:09:21;;;;;;;9.90;0.70;;;5.20;96.10;;;;;;5014708;28;20037;-82
2021/03/14 04:11:49;;;;;;;12.57;1.03;;;5.20;96.20;;;;;;5013123;28;20052;-82
2021/03/14 04:14:16;;;;;;;11.00;1.20;;;5.20;96.30;;;;;;5033175;28;20045;-82
2021/03/14 04:16:44;;;;;;;13.73;1.60;;;5.20;96.20;;;;;;5045877;28;20040;-83
2021/03/14 04:19:15;;;;;;;12.70;1.97;;;5.20;96.20;;;;;;5014868;28;20033;-83
2021/03/14 04:21:42;;;;;;;13.67;2.27;;;5.10;96.10;;;;;;5032919;28;20059;-78
2021/03/14 04:24:11;;;;;;;16.47;1.10;;;5.10;96.20;;;;;;5044219;28;20029;-81
2021/03/14 04:26:41;;;;;;;14.57;1.35;;;5.10;96.30;;;;;;5018699;28;20060;-83
2021/03/14 04:29:09;;;;;;;13.03;1.20;;;5.10;96.30;;;;;;5024000;28;20033;-80
2021/03/14 04:31:41;;;;;;;12.37;1.63;;;5.10;96.30;;;;;;5025197;28;20048;-80
2021/03/14 04:34:10;;;;;;;14.60;1.43;;;5.00;96.30;;;;;;5027889;28;20056;-80
2021/03/14 04:36:37;;;;;;;9.73;0.87;;;5.00;96.40;;;;;;5047912;28;20396;-81
2021/03/14 04:39:05;;;;;;;15.70;1.37;;;5.00;96.40;;;;;;5012104;28;20048;-80
2021/03/14 04:41:32;;;;;;;11.10;1.30;;;5.00;96.50;;;;;;4999107;28;20404;-80
2021/03/14 04:43:59;;;;;;;9.60;1.17;;;5.00;96.60;;;;;;5055986;28;20049;-77
2021/03/14 04:46:26;;;;;;;15.43;2.50;;;5.00;96.60;;;;;;5052880;28;20029;-83
2021/03/14 04:48:55;;;;;;;21.33;1.70;;;5.00;96.60;;;;;;4997708;28;20040;-82
2021/03/14 04:51:34;;;;;;;13.00;2.00;;;5.10;96.70;;;;;;5045279;28;20038;-80
2021/03/14 04:54:01;;;;;;;17.73;1.70;;;5.20;96.60;;;;;;5030062;28;20567;-80
2021/03/14 04:56:29;;;;;;;11.20;1.10;;;5.20;96.60;;;;;;5027311;28;21092;-80
2021/03/14 04:58:57;;;;;;;8.60;1.23;;;5.20;96.50;;;;;;5033688;28;20100;-80
2021/03/14 05:01:25;;;;;;;12.43;0.97;;;5.30;96.80;;;;;;5033128;28;20060;-79
2021/03/14 05:03:55;;;;;;;7.43;0.77;;;5.30;96.60;;;;;;5033781;28;20490;-80
2021/03/14 05:06:22;;;;;;;17.75;1.80;;;5.30;96.60;;;;;;5054692;28;20029;-80
2021/03/14 05:08:50;;;;;;;13.33;1.23;;;5.40;96.60;;;;;;5014557;28;20048;-80
2021/03/14 05:11:19;;;;;;;12.83;1.13;;;5.40;96.60;;;;;;5053081;28;20052;-80
2021/03/14 05:13:46;;;;;;;14.97;1.90;;;5.40;96.60;;;;;;5050715;28;20044;-80
2021/03/14 05:16:17;;;;;;;12.55;1.17;;;5.40;96.50;;;;;;5032639;28;20040;-80
2021/03/14 05:18:45;;;;;;;10.33;0.90;;;5.50;96.60;;;;;;5050431;28;20051;-80
2021/03/14 05:21:12;;;;;;;12.50;1.53;;;5.50;96.60;;;;;;5032228;28;20056;-79
2021/03/14 05:23:39;;;;;;;10.95;0.77;;;5.50;96.50;;;;;;5015769;28;20036;-80
2021/03/14 05:26:11;;;;;;;21.58;2.05;;;5.50;96.50;;;;;;5018460;28;20040;-80
2021/03/14 05:28:39;;;;;;;15.97;1.50;;;5.50;96.50;;;;;;5032803;28;20037;-80
2021/03/14 05:31:28;;;;;;;12.97;1.27;;;5.50;96.50;;;;;;5030914;28;20291;-80
2021/03/14 05:33:56;;;;;;;12.50;1.33;;;5.50;96.50;;;;;;5050373;28;20083;-81
2021/03/14 05:36:24;;;;;;;10.63;0.70;;;5.50;96.50;;;;;;5031716;28;20045;-80
2021/03/14 05:38:52;;;;;;;12.60;1.20;;;5.50;96.60;;;;;;5035129;28;20064;-79
2021/03/14 05:41:18;;;;;;;9.63;1.87;;;5.50;96.50;;;;;;5049001;28;20048;-81
2021/03/14 05:43:47;;;;;;;9.90;1.43;;;5.50;96.30;;;;;;4992687;28;20040;-80
2021/03/14 05:46:15;;;;;;;12.13;2.07;;;5.50;96.10;;;;;;5045416;28;20441;-80
2021/03/14 05:48:45;;;;;;;6.80;2.33;;;5.40;96.10;;;;;;4999979;28;20045;-80
2021/03/14 05:51:33;;;;;;;6.87;2.40;;;5.40;96.10;;;;;;5053408;28;20044;-80
2021/03/14 05:54:01;;;;;;;10.10;2.80;;;5.30;96.10;;;;;;5052743;28;20484;-80
2021/03/14 05:56:29;;;;;;;7.03;2.47;;;5.40;96.30;;;;;;5046537;28;20033;-80
2021/03/14 05:58:56;;;;;;;7.13;2.20;;;5.40;96.30;;;;;;5016175;28;20056;-80
2021/03/14 06:01:27;;;;;;;4.43;1.80;;;5.30;96.30;;;;;;5033550;28;20040;-79
2021/03/14 06:03:56;;;;;;;6.93;2.10;;;5.30;96.30;;;;;;5018510;28;20475;-80
2021/03/14 06:06:23;;;;;;;8.37;1.53;;;5.40;96.50;;;;;;5039916;28;20033;-80
2021/03/14 06:08:53;;;;;;;7.43;1.40;;;5.40;96.50;;;;;;5055090;28;20040;-86
2021/03/14 06:11:21;;;;;;;7.03;1.70;;;5.40;96.50;;;;;;4999747;28;20485;-84
2021/03/14 06:13:48;;;;;;;9.90;2.08;;;5.40;96.60;;;;;;5032015;28;20056;-86
2021/03/14 06:16:14;;;;;;;6.80;2.17;;;5.40;96.60;;;;;;5012573;28;20044;-83
2021/03/14 06:18:42;;;;;;;12.63;3.10;;;5.40;96.60;;;;;;4998765;28;20488;-83
2021/03/14 06:21:23;;;;;;;8.80;2.55;;;5.40;96.70;;;;;;5013671;28;20041;-83
2021/03/14 06:24:01;;;;;;;7.37;2.30;;;5.40;96.80;;;;;;5012720;28;20029;-83
2021/03/14 06:26:33;;;;;;;9.23;3.20;;;5.40;96.80;;;;;;5029738;28;20081;-83
2021/03/14 06:28:59;;;;;;;8.88;3.75;;;5.40;96.90;;;;;;5013078;28;20094;-83
2021/03/14 06:31:26;;;;;;;10.00;2.95;;;5.40;97.00;;;;;;5048591;28;20051;-83
2021/03/14 06:33:53;;;;;;;7.35;2.47;;;5.40;97.00;;;;;;5012738;28;20056;-83
2021/03/14 06:36:21;;;;;;;11.18;3.75;;;5.50;97.10;;;;;;5029702;28;20049;-82
2021/03/14 06:38:48;;;;;;;8.83;2.93;;;5.50;97.10;;;;;;5047874;28;20599;-82
2021/03/14 06:41:19;;;;;;;5.88;2.58;;;5.50;97.10;;;;;;5014715;28;20052;-83
2021/03/14 06:43:48;;;;;;;7.03;3.40;;;5.50;97.20;;;;;;5031075;28;20040;-82
2021/03/14 06:46:21;;;;;;;7.60;2.33;;;5.50;97.20;;;;;;5030071;28;20040;-82
2021/03/14 06:49:03;;;;;;;7.95;2.70;;;5.60;97.30;;;;;;5032453;28;20048;-82
2021/03/14 06:51:34;;;;;;;9.48;2.80;;;5.60;97.30;;;;;;5050392;28;20060;-82
2021/03/14 06:54:24;;;;;;;5.97;2.50;;;5.60;97.30;;;;;;5014302;28;20045;-82
2021/03/14 06:57:13;;;;;;;8.15;2.90;;;5.70;97.30;;;;;;5048110;28;20422;-82
2021/03/14 07:00:00;;;;;;;4.50;2.65;;;5.80;97.30;;;;;;5028706;28;20033;-82
2021/03/14 07:02:29;;;;;;;7.07;2.53;;;5.80;97.20;;;;;;5030587;28;20041;-83
2021/03/14 07:05:00;;;;;;;5.80;2.83;;;5.90;97.20;;;;;;5012608;28;20036;-83
2021/03/14 07:07:37;;;;;;;6.65;2.20;;;5.90;97.20;;;;;;5012874;28;20044;-83
2021/03/14 07:10:05;;;;;;;8.65;2.88;;;5.90;97.30;;;;;;5015763;28;20041;-83
2021/03/14 07:12:37;;;;;;;7.63;3.35;;;5.90;97.20;;;;;;5030266;28;20045;-83
2021/03/14 07:15:15;;;;;;;8.35;3.17;;;6.00;97.20;;;;;;5016800;28;20049;-83
2021/03/14 07:17:43;;;;;;;3.25;2.20;;;6.00;97.10;;;;;;5014483;28;20032;-83
2021/03/14 07:20:16;;;;;;;5.40;2.72;;;6.00;97.20;;;;;;5018044;28;20037;-82
2021/03/14 07:23:09;;;;;;;6.53;3.42;;;6.00;97.20;;;;;;5037601;28;20061;-83
2021/03/14 07:25:41;;;;;;;10.30;5.00;;;6.00;97.20;;;;;;5026027;28;20036;-83
2021/03/14 07:28:07;;;;;;;5.83;4.40;;;6.00;97.10;;;;;;5034920;28;20040;-84
2021/03/14 07:30:34;;;;;;;10.52;5.65;;;6.00;97.20;;;;;;4982880;28;20041;-85
2021/03/14 07:33:01;;;;;;;9.70;5.30;;;6.00;97.20;;;;;;5049001;28;20041;-85
2021/03/14 07:35:27;;;;;;;13.60;7.93;;;6.10;97.20;;;;;;5031561;28;20495;-78
2021/03/14 07:37:56;;;;;;;11.80;5.65;;;6.10;97.20;;;;;;5029122;28;20048;-82
2021/03/14 07:40:25;;;;;;;8.00;5.90;;;6.10;97.20;;;;;;5050504;28;20057;-83
2021/03/14 07:43:00;;;;;;;9.10;5.25;;;6.10;97.20;;;;;;5014251;28;20033;-83
2021/03/14 07:45:29;;;;;;;10.30;5.32;;;6.10;97.30;;;;;;5031288;28;20049;-83
2021/03/14 07:47:57;;;;;;;7.75;4.82;;;6.20;97.30;;;;;;5011566;28;20051;-83
2021/03/14 07:50:36;;;;;;;7.85;4.60;;;6.30;97.40;;;;;;4997541;28;20507;-83
2021/03/14 07:53:16;;;;;;;9.32;6.10;;;6.30;97.30;;;;;;5045730;28;20045;-87
2021/03/14 07:55:58;;;;;;;11.00;5.05;;;6.50;97.30;;;;;;5028619;28;20033;-86
2021/03/14 07:58:25;;;;;;;12.63;6.25;;;6.50;97.30;;;;;;5045370;28;20036;-86
2021/03/14 08:00:52;;;;;;;8.63;5.28;;;6.60;97.20;;;;;;5046557;28;20055;-86
2021/03/14 08:03:36;;;;;;;13.00;6.00;;;6.70;97.20;;;;;;4996137;28;20488;-85
2021/03/14 08:06:03;;;;;;;9.38;4.95;;;6.80;97.20;;;;;;5028252;28;20024;-86
2021/03/14 08:08:33;;;;;;;16.88;5.93;;;6.90;97.20;;;;;;5011743;28;20029;-88
2021/03/14 08:11:00;;;;;;;18.63;7.35;;;7.00;97.20;;;;;;5013777;28;20045;-87
2021/03/14 08:13:30;;;;;;;10.70;6.22;;;7.10;97.10;;;;;;4996624;28;20243;-86
2021/03/14 08:16:05;;;;;;;13.15;6.82;;;7.20;96.90;;;;;;5011861;28;20060;-88
2021/03/14 08:18:46;;;;;;;17.00;7.40;;;7.20;96.80;;;;;;5028615;28;20025;-87
2021/03/14 08:21:19;;;;;;;15.75;5.85;;;7.30;96.80;;;;;;5031071;28;20037;-87
2021/03/14 08:23:54;;;;;;;18.38;6.10;;;7.40;96.70;;;;;;5030502;28;20072;-88
2021/03/14 08:26:32;;;;;;;13.00;6.10;;;7.50;96.60;;;;;;5000531;28;20036;-88
2021/03/14 08:29:09;;;;;;;13.38;5.75;;;7.50;96.60;;;;;;5017521;28;20036;-87
2021/03/14 08:31:43;;;;;;;15.75;6.13;;;7.60;96.50;;;;;;5018185;28;20044;-87
2021/03/14 08:34:23;;;;;;;11.95;5.97;;;7.70;96.40;;;;;;5030933;28;20045;-88
2021/03/14 08:36:50;;;;;;;;;;;7.70;96.30;;;;;;5051834;28;20048;-88
2021/03/14 08:39:28;;;;;;;16.88;6.57;;;7.80;96.20;;;;;;5018294;28;19924;-86
2021/03/14 08:42:06;;;;;;;14.20;5.95;;;7.80;96.10;;;;;;5051665;28;20041;-88
2021/03/14 08:44:45;;;;;;;;;;;7.90;96.10;;;;;;5050750;28;20060;-94
2021/03/14 08:47:31;;;;;;;15.02;5.80;;;8.00;96.00;;;;;;5034118;28;20355;-89
2021/03/14 08:50:25;;;;;;;10.35;5.40;;;8.20;96.00;;;;;;5052321;28;20052;-91
2021/03/14 08:53:14;;;;;;;10.43;5.32;;;8.30;95.80;;;;;;5017656;28;20040;-85
2021/03/14 08:55:52;;;;;;;10.15;4.68;;;8.40;95.70;;;;;;5016237;28;20059;-85
2021/03/14 08:58:30;;;;;;;12.90;4.95;;;8.50;95.40;;;;;;5015549;28;20052;-89
2021/03/14 09:01:13;;;;;;;15.27;4.65;;;8.50;95.20;;;;;;5030990;28;20044;-86
2021/03/14 09:04:15;;;;;;;13.38;4.03;;;8.60;95.10;;;;;;5017545;28;20029;-89
2021/03/14 09:06:48;;;;;;;13.80;5.35;;;8.60;94.90;;;;;;5020735;28;20041;-86
2021/03/14 09:09:22;;;;;;;12.07;5.25;;;8.70;94.70;;;;;;5020685;28;20029;-88
2021/03/14 09:12:07;;;;;;;13.63;4.20;;;8.70;94.50;;;;;;5031329;28;20855;-88
2021/03/14 09:15:03;;;;;;;12.90;4.55;;;8.70;94.30;;;;;;5038090;28;21346;-88
2021/03/14 09:17:50;;;;;;;;;;;;;;;;;;;;;
2021/03/14 09:20:29;;;;;;;14.65;5.85;;;8.80;94.30;;;;;;5031652;28;20502;-86
2021/03/14 09:23:14;;;;;;;11.98;3.80;;;8.80;94.30;;;;;;5020023;28;20052;-86
2021/03/14 09:25:55;;;;;;;15.60;4.30;;;8.80;94.00;;;;;;5036741;28;20044;-84
2021/03/14 09:28:28;;;;;;;13.43;3.45;;;8.80;94.10;;;;;;5015845;28;20151;-85
2021/03/14 09:30:59;;;;;;;9.55;2.90;;;8.90;94.10;;;;;;5017616;28;20056;-86
2021/03/14 09:33:27;;;;;;;9.88;3.20;;;9.00;94.10;;;;;;5030218;28;20041;-85
2021/03/14 09:36:07;;;;;;;9.38;2.83;;;9.00;94.20;;;;;;5018533;28;20044;-85
2021/03/14 09:38:57;;;;;;;14.15;3.60;;;9.20;94.00;;;;;;5016449;28;20507;-84
2021/03/14 09:41:42;;;;;;;15.68;3.78;;;9.30;93.60;;;;;;5019683;28;21137;-85
2021/03/14 09:44:19;;;;;;;13.15;3.00;;;9.40;93.20;;;;;;5027668;28;20024;-84
2021/03/14 09:47:03;;;;;;;9.60;2.28;;;9.40;93.10;;;;;;5043862;28;20029;-83
2021/03/14 09:50:07;;;;;;;14.73;2.33;;;9.50;93.40;;;;;;5046602;28;20443;-84
2021/03/14 09:52:36;;;;;;;11.25;2.60;;;9.60;93.20;;;;;;5032677;28;20029;-85
2021/03/14 09:55:04;;;;;;;12.73;3.10;;;9.70;93.10;;;;;;5015596;28;20032;-84
2021/03/14 09:57:31;;;;;;;9.57;2.72;;;9.80;93.00;;;;;;5031633;28;20044;-84
2021/03/14 10:00:19;;;;;;;9.70;2.70;;;9.90;92.60;;;;;;5019084;28;20589;-85
2021/03/14 10:03:13;;;;;;;9.88;2.22;;;10.10;92.10;;;;;;5043606;28;20063;-84
2021/03/14 10:06:10;;;;;;;9.35;2.30;;;10.40;91.80;;;;;;5016408;28;20479;-90
2021/03/14 10:08:48;;;;;;;11.05;1.73;;;10.60;91.00;;;;;;5030775;28;20041;-85
2021/03/14 10:11:16;;;;;;;11.23;2.00;;;10.70;89.90;;;;;;4999937;28;20053;-85
2021/03/14 10:13:53;;;;;;;9.35;1.50;;;10.70;89.30;;;;;;5031738;28;20040;-86
2021/03/14 10:16:24;;;;;;;12.25;1.58;;;10.70;90.00;;;;;;5010732;28;20043;-87
2021/03/14 10:18:59;;;;;;;7.50;1.65;;;10.80;90.20;;;;;;5035506;28;20048;-84
2021/03/14 10:21:43;;;;;;;9.45;1.85;;;10.80;90.40;;;;;;5032195;28;20048;-88
2021/03/14 10:24:22;;;;;;;11.38;1.40;;;10.80;90.10;;;;;;5041544;28;20041;-80
2021/03/14 10:27:09;;;;;;;8.85;1.90;;;10.70;90.40;;;;;;5042191;28;20120;-84
2021/03/14 10:29:57;;;;;;;6.07;1.58;;;10.60;89.80;;;;;;5043365;28;20049;-84
2021/03/14 10:32:48;;;;;;;9.65;1.70;;;10.50;89.10;;;;;;5019265;28;20025;-85
2021/03/14 10:35:25;;;;;;;8.00;1.65;;;10.30;88.90;;;;;;5025920;28;20511;-87
2021/03/14 10:37:56;;;;;;;5.80;1.20;;;10.10;88.60;;;;;;5011843;28;20412;-83
2021/03/14 10:40:27;;;;;;;9.13;1.05;;;9.90;88.90;;;;;;5045706;28;20053;-84
2021/03/14 10:43:17;;;;;;;9.02;0.50;;;9.80;88.80;;;;;;5000416;28;20045;-83
2021/03/14 10:45:46;;;;;;;2.63;0.30;;;9.70;88.30;;;;;;5014086;28;20051;-84
2021/03/14 10:48:17;;;;;;;3.53;0.35;;;9.60;87.40;;;;;;5025101;28;20040;-84
2021/03/14 10:50:47;;;;;;;1.92;0.40;;;9.40;86.70;;;;;;5035405;28;20503;-84
2021/03/14 10:53:20;;;;;;;2.97;0.30;;;9.20;87.20;;;;;;5017429;28;20045;-84
2021/03/14 10:56:07;;;;;;;2.60;0.38;;;9.30;89.80;;;;;;5004834;28;20037;-85
2021/03/14 11:02:42;;;;;;;3.95;0.30;;;10.60;90.30;;;;;;5036830;28;20036;-83
2021/03/14 11:05:20;;;;;;;3.88;0.47;;;11.70;88.40;;;;;;5029590;28;20060;-85
2021/03/14 11:07:57;;;;;;;5.40;0.55;;;12.20;86.00;;;;;;5015119;28;20055;-84
2021/03/14 11:11:02;;;;;;;4.75;0.80;;;12.40;84.90;;;;;;5034325;28;20028;-91
2021/03/14 11:13:44;;;;;;;5.95;0.60;;;12.20;84.70;;;;;;5033015;28;20518;-83
2021/03/14 11:16:29;;;;;;;7.65;0.80;;;11.90;84.90;;;;;;5043848;28;20092;-84
2021/03/14 11:19:04;;;;;;;2.53;0.63;;;11.70;84.10;;;;;;5044949;28;20076;-84
2021/03/14 11:21:54;;;;;;;3.17;0.93;;;11.40;84.90;;;;;;5042297;28;20060;-84
2021/03/14 11:24:27;;;;;;;1.88;0.50;;;11.20;85.50;;;;;;4984131;28;20036;-83
2021/03/14 11:26:54;;;;;;;3.90;0.85;;;11.10;86.10;;;;;;4996489;28;20056;-84
2021/03/14 11:29:22;;;;;;;4.60;0.60;;;11.20;87.00;;;;;;5013650;28;20063;-87
2021/03/14 11:31:59;;;;;;;5.43;0.55;;;11.70;87.80;;;;;;5001209;28;20044;-86
2021/03/14 11:34:26;;;;;;;6.03;0.60;;;12.60;86.50;;;;;;5029455;28;20032;-86
2021/03/14 11:37:12;;;;;;;4.57;0.80;;;13.00;84.90;;;;;;5011381;28;20052;-86
2021/03/14 11:40:15;;;;;;;4.57;0.50;;;13.00;83.20;;;;;;5032631;28;20044;-87
2021/03/14 11:43:10;;;;;;;4.45;0.60;;;12.80;79.90;;;;;;5037463;28;20053;-89
2021/03/14 11:45:43;;;;;;;;;;;12.70;80.60;;;;;;5011722;28;20041;-87
2021/03/14 11:48:10;;;;;;;5.15;0.47;;;12.70;81.40;;;;;;4994117;28;19920;-86
2021/03/14 11:50:54;;;;;;;3.53;0.50;;;12.90;81.00;;;;;;5027765;28;20038;-82
2021/03/14 11:53:29;;;;;;;7.20;0.73;;;12.80;79.40;;;;;;5029412;28;20420;-84
2021/03/14 11:56:01;;;;;;;9.50;0.70;;;12.50;78.90;;;;;;5024817;28;20692;-87
2021/03/14 11:58:41;;;;;;;4.63;0.60;;;12.10;79.10;;;;;;5042895;28;20041;-84
2021/03/14 12:01:08;;;;;;;3.90;0.70;;;11.90;79.80;;;;;;5000110;28;20037;-85
2021/03/14 12:03:38;;;;;;;8.35;1.00;;;11.80;81.10;;;;;;5028233;28;20037;-87
2021/03/14 12:06:29;;;;;;;4.88;0.98;;;11.90;80.10;;;;;;5030968;28;20495;-86
2021/03/14 12:09:11;;;;;;;4.90;0.60;;;11.80;78.80;;;;;;5019859;28;20042;-85
2021/03/14 12:11:43;;;;;;;6.65;0.70;;;11.70;78.60;;;;;;5032722;28;20044;-91
2021/03/14 12:15:28;;;;;;;;;;;;;;;;;;;;;
2021/03/14 12:23:13;;;;;;;4.65;0.30;;;11.50;76.50;;;;;;5005624;28;20204;-86
2021/03/14 12:25:47;;;;;;;4.28;0.68;;;11.60;76.80;;;;;;5005760;28;20045;-89
2021/03/14 12:28:19;;;;;;;5.47;1.17;;;11.60;76.10;;;;;;4977813;28;20048;-81
2021/03/14 12:30:52;;;;;;;6.75;1.02;;;11.60;74.60;;;;;;4990932;28;20060;-94
2021/03/14 12:33:21;;;;;;;3.78;0.50;;;11.60;75.50;;;;;;5046518;28;20040;-85
2021/03/14 12:35:49;;;;;;;4.07;0.70;;;11.50;75.70;;;;;;5023961;28;20044;-81
2021/03/14 12:38:47;;;;;;;2.70;0.40;;;11.50;76.80;;;;;;5029749;28;20036;-84
2021/03/14 12:41:14;;;;;;;2.97;0.38;;;11.60;76.80;;;;;;5026850;28;20036;-82
2021/03/14 12:43:41;;;;;;;6.05;0.80;;;12.40;77.90;;;;;;5034559;28;20495;-81
2021/03/14 12:46:08;;;;;;;6.95;0.95;;;13.00;74.00;;;;;;5027497;28;20493;-85
2021/03/14 12:48:34;;;;;;;4.00;0.50;;;13.00;72.40;;;;;;5036935;28;20048;-86
2021/03/14 12:51:05;;;;;;;5.93;0.43;;;12.70;72.60;;;;;;5022370;28;20047;-86
2021/03/14 12:53:34;;;;;;;4.60;0.50;;;12.20;73.20;;;;;;5002301;28;20059;-85
2021/03/14 12:56:06;;;;;;;5.38;0.50;;;11.70;71.90;;;;;;5022938;28;20036;-84
2021/03/14 12:58:39;;;;;;;4.38;0.50;;;11.30;73.70;;;;;;5034941;28;20033;-83
2021/03/14 13:01:07;;;;;;;7.35;0.70;;;10.80;76.80;;;;;;5035909;28;20051;-82
2021/03/14 13:03:33;;;;;;;4.18;0.63;;;10.60;79.00;;;;;;5033939;28;20059;-81
2021/03/14 13:05:59;;;;;;;6.70;0.50;;;10.20;80.70;;;;;;5071063;28;20051;-82
2021/03/14 13:08:26;;;;;;;4.28;0.60;;;10.10;84.00;;;;;;5037059;28;20487;-85
2021/03/14 13:10:53;;;;;;;5.60;0.70;;;10.80;86.50;;;;;;4995434;28;20050;-78
2021/03/14 13:13:20;;;;;;;6.97;0.90;;;11.90;85.70;;;;;;5016409;28;20044;-79
2021/03/14 13:15:46;;;;;;;9.07;1.15;;;13.00;84.40;;;;;;5019419;28;20051;-82
2021/03/14 13:18:13;;;;;;;7.35;0.95;;;13.80;79.10;;;;;;5020515;28;20055;-82
2021/03/14 13:20:39;;;;;;;8.45;0.77;;;13.60;76.50;;;;;;5047825;28;20044;-79
2021/03/14 13:23:06;;;;;;;6.78;1.02;;;13.00;77.40;;;;;;5063836;28;20061;-82
2021/03/14 13:25:33;;;;;;;7.43;0.88;;;12.50;78.60;;;;;;5034578;28;20039;-82
2021/03/14 13:27:59;;;;;;;3.35;0.60;;;12.00;78.80;;;;;;5048473;28;20047;-83
2021/03/14 13:30:26;;;;;;;10.45;1.23;;;11.60;79.80;;;;;;5050580;28;20494;-83